Time;durP1;ratioP1;P1;durP2;ratioP2;P2;SDS_P1;SDS_P2;PMS_P1;PMS_P2;Temp;Humidity;BMP_temperature;BMP_pressure;BME280_temperature;BME280_humidity;BME280_pressure;Samples;Min_cycle;Max_cycle;Signal;HPM_P1;HPM_P2
2021/09/08 00:00:59;;;;;;;53.28;26.35;;;;;;;;;;5063775;28;20084;-64
2021/09/08 00:03:25;;;;;;;53.15;27.08;;;;;;;;;;5046590;28;20047;-68
2021/09/08 00:05:51;;;;;;;51.85;27.88;;;;;;;;;;5064333;28;20318;-68
2021/09/08 00:08:17;;;;;;;51.63;28.08;;;;;;;;;;5046352;28;20032;-68
2021/09/08 00:10:43;;;;;;;49.28;27.35;;;;;;;;;;5081460;28;20048;-67
2021/09/08 00:13:09;;;;;;;52.20;27.50;;;;;;;;;;5084384;28;20024;-65
2021/09/08 00:15:35;;;;;;;47.22;25.85;;;;;;;;;;5087654;28;20029;-64
2021/09/08 00:18:01;;;;;;;49.22;25.42;;;;;;;;;;5088133;28;20025;-65
2021/09/08 00:20:27;;;;;;;53.40;28.17;;;;;;;;;;5088013;28;20123;-68
2021/09/08 00:22:53;;;;;;;42.88;23.23;;;;;;;;;;5087868;28;20024;-65
2021/09/08 00:25:20;;;;;;;47.28;25.95;;;;;;;;;;5088031;28;20047;-64
2021/09/08 00:27:46;;;;;;;46.42;24.60;;;;;;;;;;5083605;28;20017;-64
2021/09/08 00:30:12;;;;;;;45.90;24.20;;;;;;;;;;5067989;28;20060;-65
2021/09/08 00:32:38;;;;;;;45.40;24.25;;;;;;;;;;5067523;28;20040;-66
2021/09/08 00:35:05;;;;;;;45.53;24.58;;;;;;;;;;5067954;28;20119;-65
2021/09/08 00:37:34;;;;;;;46.15;26.42;;;;;;;;;;5067769;28;20056;-68
2021/09/08 00:40:00;;;;;;;42.83;24.75;;;;;;;;;;5067624;28;20028;-68
2021/09/08 00:42:26;;;;;;;45.65;23.90;;;;;;;;;;5067900;28;20057;-70
2021/09/08 00:44:52;;;;;;;44.90;24.10;;;;;;;;;;5068025;28;20260;-65
2021/09/08 00:47:19;;;;;;;43.85;24.35;;;;;;;;;;5067522;28;20029;-71
2021/09/08 00:49:46;;;;;;;46.28;23.42;;;;;;;;;;5068071;28;20024;-68
2021/09/08 00:52:13;;;;;;;47.28;23.15;;;;;;;;;;5068328;28;20025;-65
2021/09/08 00:54:39;;;;;;;46.53;23.08;;;;;;;;;;5068941;28;20032;-65
2021/09/08 00:57:06;;;;;;;47.90;24.20;;;;;;;;;;5068001;28;20061;-69
2021/09/08 00:59:35;;;;;;;47.28;24.13;;;;;;;;;;5068225;28;20043;-68
2021/09/08 01:02:04;;;;;;;50.22;23.60;;;;;;;;;;5068214;28;20028;-65
2021/09/08 01:04:30;;;;;;;45.92;23.33;;;;;;;;;;5068102;28;20468;-65
2021/09/08 01:07:00;;;;;;;47.38;26.92;;;;;;;;;;5068063;28;20036;-72
2021/09/08 01:09:26;;;;;;;45.63;24.83;;;;;;;;;;5067406;28;20048;-65
2021/09/08 01:11:52;;;;;;;42.85;22.88;;;;;;;;;;5068106;28;20029;-64
2021/09/08 01:14:21;;;;;;;48.92;24.90;;;;;;;;;;5068100;28;20044;-67
2021/09/08 01:16:51;;;;;;;43.40;24.17;;;;;;;;;;5067940;28;20025;-67
2021/09/08 01:19:17;;;;;;;42.42;22.08;;;;;;;;;;5067705;28;20075;-67
2021/09/08 01:21:43;;;;;;;43.90;22.58;;;;;;;;;;5068098;28;20033;-64
2021/09/08 01:24:10;;;;;;;39.70;21.77;;;;;;;;;;5068015;28;20021;-65
2021/09/08 01:26:36;;;;;;;49.33;24.05;;;;;;;;;;5067293;28;20032;-66
2021/09/08 01:29:03;;;;;;;40.20;23.30;;;;;;;;;;5067731;28;20025;-65
2021/09/08 01:31:29;;;;;;;46.33;23.75;;;;;;;;;;5067558;28;20029;-65
2021/09/08 01:33:55;;;;;;;44.88;23.73;;;;;;;;;;5067696;28;20056;-64
2021/09/08 01:36:21;;;;;;;43.72;24.90;;;;;;;;;;5067537;28;20029;-65
2021/09/08 01:38:50;;;;;;;45.67;24.35;;;;;;;;;;5067635;28;20052;-65
2021/09/08 01:41:16;;;;;;;45.63;22.88;;;;;;;;;;5067862;28;20032;-65
2021/09/08 01:43:45;;;;;;;44.53;23.90;;;;;;;;;;5067562;28;20083;-66
2021/09/08 01:46:17;;;;;;;42.72;24.27;;;;;;;;;;5067472;28;20033;-66
2021/09/08 01:48:43;;;;;;;47.70;22.52;;;;;;;;;;5067474;28;20032;-65
2021/09/08 01:51:13;;;;;;;46.10;23.45;;;;;;;;;;5067595;28;20071;-65
2021/09/08 01:53:39;;;;;;;46.58;24.25;;;;;;;;;;5067448;28;20103;-65
2021/09/08 01:56:05;;;;;;;51.83;25.27;;;;;;;;;;5067135;28;20037;-65
2021/09/08 01:58:31;;;;;;;47.10;24.05;;;;;;;;;;5067604;28;20032;-65
2021/09/08 02:00:58;;;;;;;43.92;23.25;;;;;;;;;;5067352;28;20073;-65
2021/09/08 02:03:24;;;;;;;44.00;23.83;;;;;;;;;;5067137;28;20033;-66
2021/09/08 02:05:50;;;;;;;44.25;21.63;;;;;;;;;;5067295;28;20028;-65
2021/09/08 02:08:16;;;;;;;43.97;23.52;;;;;;;;;;5067273;28;20025;-65
2021/09/08 02:10:42;;;;;;;39.00;22.13;;;;;;;;;;5066993;28;20029;-67
2021/09/08 02:13:08;;;;;;;38.70;20.80;;;;;;;;;;5061768;28;20486;-69
2021/09/08 02:15:35;;;;;;;37.75;18.92;;;;;;;;;;5066754;28;20025;-65
2021/09/08 02:18:01;;;;;;;34.67;19.85;;;;;;;;;;5066926;28;20025;-67
2021/09/08 02:20:27;;;;;;;32.67;19.38;;;;;;;;;;5066761;28;20040;-68
2021/09/08 02:22:53;;;;;;;33.58;18.42;;;;;;;;;;5066746;28;20021;-65
2021/09/08 02:25:19;;;;;;;36.78;18.10;;;;;;;;;;5066963;28;20025;-67
2021/09/08 02:27:45;;;;;;;28.83;17.73;;;;;;;;;;5066916;28;20025;-65
2021/09/08 02:30:12;;;;;;;28.58;17.88;;;;;;;;;;5066754;28;20025;-67
2021/09/08 02:32:38;;;;;;;29.52;17.27;;;;;;;;;;5066794;28;20028;-65
2021/09/08 02:35:05;;;;;;;34.45;18.15;;;;;;;;;;5066468;28;20029;-69
2021/09/08 02:37:31;;;;;;;33.45;18.77;;;;;;;;;;5065343;28;20459;-67
2021/09/08 02:39:57;;;;;;;30.17;18.90;;;;;;;;;;5065960;28;20049;-66
2021/09/08 02:42:23;;;;;;;31.50;17.98;;;;;;;;;;5066623;28;20025;-67
2021/09/08 02:44:50;;;;;;;33.58;19.75;;;;;;;;;;5066158;28;20472;-65
2021/09/08 02:47:16;;;;;;;32.70;21.35;;;;;;;;;;5063866;28;20092;-67
2021/09/08 02:49:43;;;;;;;35.55;20.80;;;;;;;;;;5065791;28;20049;-67
2021/09/08 02:52:09;;;;;;;35.97;21.40;;;;;;;;;;5066469;28;20029;-66
2021/09/08 02:54:35;;;;;;;36.40;21.33;;;;;;;;;;5066170;28;20021;-69
2021/09/08 02:57:02;;;;;;;33.85;20.77;;;;;;;;;;5065977;28;20489;-65
2021/09/08 02:59:28;;;;;;;37.35;18.88;;;;;;;;;;5066020;28;20027;-65
2021/09/08 03:01:54;;;;;;;34.33;19.17;;;;;;;;;;5065922;28;20013;-66
2021/09/08 03:04:20;;;;;;;33.63;19.25;;;;;;;;;;5066188;28;20032;-67
2021/09/08 03:06:48;;;;;;;30.48;18.83;;;;;;;;;;5065937;28;20028;-69
2021/09/08 03:09:15;;;;;;;31.95;19.40;;;;;;;;;;5065582;28;20208;-65
2021/09/08 03:11:41;;;;;;;32.53;18.77;;;;;;;;;;5065590;28;20024;-70
2021/09/08 03:14:07;;;;;;;34.33;18.77;;;;;;;;;;5064355;28;20029;-72
2021/09/08 03:16:33;;;;;;;30.55;17.58;;;;;;;;;;5063367;28;20029;-65
2021/09/08 03:18:59;;;;;;;34.10;18.65;;;;;;;;;;5065938;28;20541;-65
2021/09/08 03:21:25;;;;;;;29.05;16.70;;;;;;;;;;5065575;28;20045;-66
2021/09/08 03:23:51;;;;;;;30.58;17.58;;;;;;;;;;5064849;28;20028;-67
2021/09/08 03:26:17;;;;;;;30.40;18.13;;;;;;;;;;5065704;28;20029;-66
2021/09/08 03:28:43;;;;;;;31.15;18.00;;;;;;;;;;5065709;28;20087;-65
2021/09/08 03:31:09;;;;;;;29.65;16.90;;;;;;;;;;5060317;28;20036;-65
2021/09/08 03:33:36;;;;;;;33.55;17.98;;;;;;;;;;5065419;28;20025;-67
2021/09/08 03:36:02;;;;;;;28.23;17.58;;;;;;;;;;5062990;28;20079;-67
2021/09/08 03:38:28;;;;;;;30.58;17.50;;;;;;;;;;5062509;28;20024;-66
2021/09/08 03:40:54;;;;;;;32.00;18.08;;;;;;;;;;5062824;28;20079;-66
2021/09/08 03:43:20;;;;;;;33.25;18.70;;;;;;;;;;5063572;28;20436;-65
2021/09/08 03:45:46;;;;;;;33.75;17.67;;;;;;;;;;5061598;28;20025;-65
2021/09/08 03:48:12;;;;;;;38.30;19.98;;;;;;;;;;5070515;28;20028;-67
2021/09/08 03:50:38;;;;;;;30.02;17.17;;;;;;;;;;5105007;28;20020;-70
2021/09/08 03:53:05;;;;;;;32.95;18.95;;;;;;;;;;5103456;28;20485;-65
2021/09/08 03:55:31;;;;;;;30.00;17.73;;;;;;;;;;5103780;28;20455;-70
2021/09/08 03:57:57;;;;;;;31.73;18.75;;;;;;;;;;5104171;28;20028;-69
2021/09/08 04:00:23;;;;;;;32.33;17.40;;;;;;;;;;5104325;28;20493;-65
2021/09/08 04:02:49;;;;;;;35.38;18.80;;;;;;;;;;5103760;28;20032;-68
2021/09/08 04:05:15;;;;;;;31.60;17.35;;;;;;;;;;5104434;28;20028;-70
2021/09/08 04:07:41;;;;;;;31.60;17.48;;;;;;;;;;5104634;28;20050;-69
2021/09/08 04:10:08;;;;;;;32.95;17.83;;;;;;;;;;5102983;28;20059;-65
2021/09/08 04:12:34;;;;;;;29.83;16.40;;;;;;;;;;5105742;28;20052;-65
2021/09/08 04:15:00;;;;;;;31.23;18.55;;;;;;;;;;5105646;28;20024;-69
2021/09/08 04:17:26;;;;;;;36.33;20.67;;;;;;;;;;5105874;28;20031;-66
2021/09/08 04:19:52;;;;;;;29.45;16.85;;;;;;;;;;5105509;28;20071;-65
2021/09/08 04:22:18;;;;;;;36.13;18.00;;;;;;;;;;5105544;28;20020;-65
2021/09/08 04:24:44;;;;;;;29.50;16.65;;;;;;;;;;5103367;28;20046;-72
2021/09/08 04:27:11;;;;;;;32.25;17.25;;;;;;;;;;5100453;28;20024;-66
2021/09/08 04:29:37;;;;;;;32.72;17.88;;;;;;;;;;5106846;28;20024;-66
2021/09/08 04:32:03;;;;;;;33.17;16.63;;;;;;;;;;5105672;28;20032;-65
2021/09/08 04:34:29;;;;;;;32.97;17.83;;;;;;;;;;5105806;28;20020;-65
2021/09/08 04:36:55;;;;;;;34.03;17.80;;;;;;;;;;5105718;28;20020;-67
2021/09/08 04:39:22;;;;;;;31.70;17.10;;;;;;;;;;5105648;28;20095;-66
2021/09/08 04:41:48;;;;;;;34.20;17.40;;;;;;;;;;5105577;28;20046;-65
2021/09/08 04:44:14;;;;;;;36.63;19.45;;;;;;;;;;5105792;28;20042;-64
2021/09/08 04:46:40;;;;;;;32.72;17.17;;;;;;;;;;5105564;28;20519;-66
2021/09/08 04:49:06;;;;;;;33.17;18.13;;;;;;;;;;5105921;28;20020;-64
2021/09/08 04:51:32;;;;;;;35.50;18.58;;;;;;;;;;5105753;28;20031;-66
2021/09/08 04:53:58;;;;;;;31.55;17.23;;;;;;;;;;5105546;28;20058;-65
2021/09/08 04:56:25;;;;;;;36.17;19.27;;;;;;;;;;5105822;28;20024;-67
2021/09/08 04:58:51;;;;;;;35.47;18.58;;;;;;;;;;5105500;28;20027;-68
2021/09/08 05:01:17;;;;;;;36.95;18.85;;;;;;;;;;5108125;28;20024;-65
2021/09/08 05:03:43;;;;;;;40.60;19.20;;;;;;;;;;5108871;28;20020;-68
2021/09/08 05:06:09;;;;;;;37.83;19.30;;;;;;;;;;5109206;28;20028;-65
2021/09/08 05:08:35;;;;;;;36.60;19.35;;;;;;;;;;5109054;28;20073;-69
2021/09/08 05:11:01;;;;;;;35.05;18.98;;;;;;;;;;5108871;28;20024;-67
2021/09/08 05:13:27;;;;;;;35.15;19.67;;;;;;;;;;5109013;28;20031;-65
2021/09/08 05:15:53;;;;;;;35.38;19.02;;;;;;;;;;5108913;28;20024;-65
2021/09/08 05:18:19;;;;;;;40.40;20.15;;;;;;;;;;5109069;28;20020;-67
2021/09/08 05:20:45;;;;;;;36.20;20.55;;;;;;;;;;5109674;28;20075;-69
2021/09/08 05:23:12;;;;;;;37.92;19.45;;;;;;;;;;5110159;28;20024;-67
2021/09/08 05:25:38;;;;;;;37.53;19.85;;;;;;;;;;5110069;28;20023;-65
2021/09/08 05:28:04;;;;;;;37.97;20.27;;;;;;;;;;5109363;28;20042;-67
2021/09/08 05:30:30;;;;;;;41.85;20.45;;;;;;;;;;5108890;28;20028;-65
2021/09/08 05:32:56;;;;;;;40.00;21.63;;;;;;;;;;5108554;28;20020;-65
2021/09/08 05:35:22;;;;;;;37.92;20.58;;;;;;;;;;5108851;28;20025;-65
2021/09/08 05:37:49;;;;;;;38.53;21.35;;;;;;;;;;5108200;28;20028;-65
2021/09/08 05:40:15;;;;;;;39.58;20.67;;;;;;;;;;5108072;28;20028;-66
2021/09/08 05:42:41;;;;;;;39.42;20.95;;;;;;;;;;5108447;28;20013;-65
2021/09/08 05:45:07;;;;;;;41.47;21.17;;;;;;;;;;5090168;28;20027;-65
2021/09/08 05:47:33;;;;;;;40.97;22.40;;;;;;;;;;5108290;28;20028;-65
2021/09/08 05:49:59;;;;;;;41.17;21.55;;;;;;;;;;5108013;28;20046;-65
2021/09/08 05:52:25;;;;;;;37.95;20.60;;;;;;;;;;5108149;28;20050;-67
2021/09/08 05:54:52;;;;;;;44.67;22.42;;;;;;;;;;5107324;28;20387;-68
2021/09/08 05:57:18;;;;;;;43.00;21.80;;;;;;;;;;5108120;28;20024;-65
2021/09/08 05:59:44;;;;;;;42.22;23.00;;;;;;;;;;5108857;28;20019;-66
2021/09/08 06:02:10;;;;;;;38.05;20.27;;;;;;;;;;5107658;28;20046;-69
2021/09/08 06:04:36;;;;;;;37.97;21.05;;;;;;;;;;5108187;28;20026;-66
2021/09/08 06:07:07;;;;;;;40.97;22.42;;;;;;;;;;5107777;28;20490;-65
2021/09/08 06:09:33;;;;;;;39.92;21.67;;;;;;;;;;5107908;28;20020;-66
2021/09/08 06:11:59;;;;;;;40.17;22.27;;;;;;;;;;5106398;28;20501;-68
2021/09/08 06:14:26;;;;;;;37.72;19.85;;;;;;;;;;5107541;28;20032;-65
2021/09/08 06:16:52;;;;;;;40.33;21.55;;;;;;;;;;5107472;28;20499;-65
2021/09/08 06:19:18;;;;;;;42.67;21.15;;;;;;;;;;5107610;28;20443;-65
2021/09/08 06:21:44;;;;;;;38.28;21.27;;;;;;;;;;5107647;28;20039;-65
2021/09/08 06:24:10;;;;;;;36.38;20.58;;;;;;;;;;5107445;28;20028;-65
2021/09/08 06:26:36;;;;;;;36.00;20.23;;;;;;;;;;5107585;28;20031;-66
2021/09/08 06:29:02;;;;;;;44.35;21.92;;;;;;;;;;5092225;28;20047;-65
2021/09/08 06:31:28;;;;;;;39.88;20.98;;;;;;;;;;5087236;28;20103;-66
2021/09/08 06:33:55;;;;;;;42.25;21.13;;;;;;;;;;5086698;28;20032;-65
2021/09/08 06:36:21;;;;;;;36.47;19.98;;;;;;;;;;5086737;28;20044;-66
2021/09/08 06:38:47;;;;;;;38.58;20.98;;;;;;;;;;5086857;28;20032;-65
2021/09/08 06:41:13;;;;;;;35.38;19.80;;;;;;;;;;5086719;28;20025;-69
2021/09/08 06:43:39;;;;;;;37.28;20.30;;;;;;;;;;5087497;28;20082;-67
2021/09/08 06:46:05;;;;;;;41.25;19.77;;;;;;;;;;5087696;28;20025;-66
2021/09/08 06:48:31;;;;;;;36.88;20.77;;;;;;;;;;5086757;28;20024;-65
2021/09/08 06:50:57;;;;;;;35.72;19.58;;;;;;;;;;5086863;28;20076;-66
2021/09/08 06:53:23;;;;;;;38.28;20.73;;;;;;;;;;5086450;28;20044;-69
2021/09/08 06:55:50;;;;;;;39.20;21.65;;;;;;;;;;5086626;28;20043;-70
2021/09/08 06:58:16;;;;;;;36.65;21.13;;;;;;;;;;5086688;28;20028;-68
2021/09/08 07:00:42;;;;;;;38.22;20.00;;;;;;;;;;5086505;28;20352;-65
2021/09/08 07:03:09;;;;;;;41.83;21.30;;;;;;;;;;5086129;28;20025;-65
2021/09/08 07:05:35;;;;;;;34.13;19.73;;;;;;;;;;5077927;28;20029;-71
2021/09/08 07:08:05;;;;;;;37.03;20.45;;;;;;;;;;5061489;28;20134;-70
2021/09/08 07:10:31;;;;;;;36.67;20.95;;;;;;;;;;5058159;28;20035;-74
2021/09/08 07:12:57;;;;;;;40.70;21.88;;;;;;;;;;5061316;28;20029;-67
2021/09/08 07:15:23;;;;;;;36.42;20.52;;;;;;;;;;5041613;28;20032;-65
2021/09/08 07:17:49;;;;;;;43.95;22.23;;;;;;;;;;5065072;28;20033;-67
2021/09/08 07:20:16;;;;;;;40.20;19.70;;;;;;;;;;5064671;28;20045;-67
2021/09/08 07:22:42;;;;;;;38.67;21.20;;;;;;;;;;5064696;28;20013;-69
2021/09/08 07:25:08;;;;;;;37.60;21.48;;;;;;;;;;5065750;28;20067;-65
2021/09/08 07:27:34;;;;;;;36.45;20.95;;;;;;;;;;5048831;28;20032;-66
2021/09/08 07:30:00;;;;;;;34.10;20.88;;;;;;;;;;5066369;28;20480;-66
2021/09/08 07:32:26;;;;;;;40.63;21.58;;;;;;;;;;5066203;28;20029;-67
2021/09/08 07:34:57;;;;;;;36.40;20.80;;;;;;;;;;5065980;28;20099;-72
2021/09/08 07:37:24;;;;;;;41.42;20.55;;;;;;;;;;5065307;28;20036;-69
2021/09/08 07:39:50;;;;;;;38.72;20.90;;;;;;;;;;5064996;28;20220;-66
2021/09/08 07:42:19;;;;;;;36.83;20.45;;;;;;;;;;5065467;28;20029;-65
2021/09/08 07:44:45;;;;;;;31.00;18.83;;;;;;;;;;5064107;28;20025;-70
2021/09/08 07:47:11;;;;;;;37.05;18.67;;;;;;;;;;5065269;28;20100;-72
2021/09/08 07:49:38;;;;;;;33.53;20.02;;;;;;;;;;5067390;28;20032;-66
2021/09/08 07:52:04;;;;;;;32.72;20.95;;;;;;;;;;5065311;28;20412;-66
2021/09/08 07:54:31;;;;;;;33.22;20.48;;;;;;;;;;5066047;28;20029;-66
2021/09/08 07:56:57;;;;;;;34.90;18.92;;;;;;;;;;5065458;28;20084;-68
2021/09/08 07:59:23;;;;;;;38.65;18.13;;;;;;;;;;5080587;28;20021;-70
2021/09/08 08:01:49;;;;;;;38.03;20.70;;;;;;;;;;5085819;28;20017;-66
2021/09/08 08:04:15;;;;;;;32.50;18.08;;;;;;;;;;5085324;28;20028;-65
2021/09/08 08:06:42;;;;;;;35.28;18.92;;;;;;;;;;5085231;28;20021;-70
2021/09/08 08:09:08;;;;;;;39.60;19.83;;;;;;;;;;5085327;28;20032;-66
2021/09/08 08:11:34;;;;;;;37.13;20.05;;;;;;;;;;5066925;28;20025;-68
2021/09/08 08:14:00;;;;;;;37.05;20.42;;;;;;;;;;5085097;28;20029;-67
2021/09/08 08:16:26;;;;;;;32.10;20.27;;;;;;;;;;5084786;28;20025;-66
2021/09/08 08:18:53;;;;;;;34.05;17.65;;;;;;;;;;5084631;28;20036;-66
2021/09/08 08:21:19;;;;;;;33.40;19.00;;;;;;;;;;5083096;28;20115;-67
2021/09/08 08:23:45;;;;;;;29.98;17.40;;;;;;;;;;5084849;28;20035;-68
2021/09/08 08:26:11;;;;;;;30.67;17.38;;;;;;;;;;5083694;28;20060;-66
2021/09/08 08:28:37;;;;;;;34.47;18.73;;;;;;;;;;5084292;28;20029;-66
2021/09/08 08:31:05;;;;;;;28.38;18.27;;;;;;;;;;5085150;28;20032;-66
2021/09/08 08:33:31;;;;;;;26.88;17.13;;;;;;;;;;5084594;28;20048;-73
2021/09/08 08:35:57;;;;;;;27.13;16.42;;;;;;;;;;5082772;28;20033;-67
2021/09/08 08:38:23;;;;;;;26.38;16.27;;;;;;;;;;5083277;28;20028;-66
2021/09/08 08:40:49;;;;;;;27.48;17.70;;;;;;;;;;5087322;28;20025;-66
2021/09/08 08:43:16;;;;;;;30.05;18.40;;;;;;;;;;5089567;28;20028;-68
2021/09/08 08:45:42;;;;;;;28.38;15.57;;;;;;;;;;5089634;28;20016;-65
2021/09/08 08:48:08;;;;;;;22.73;15.45;;;;;;;;;;5086823;28;20017;-67
2021/09/08 08:50:34;;;;;;;26.92;15.18;;;;;;;;;;5087137;28;20020;-69
2021/09/08 08:53:00;;;;;;;25.35;15.23;;;;;;;;;;5087743;28;20042;-65
2021/09/08 08:55:27;;;;;;;24.45;15.75;;;;;;;;;;5087273;28;20074;-66
2021/09/08 08:57:53;;;;;;;27.20;17.52;;;;;;;;;;5086896;28;20062;-68
2021/09/08 09:00:20;;;;;;;26.92;16.55;;;;;;;;;;5085375;28;20029;-72
2021/09/08 09:02:47;;;;;;;29.80;16.05;;;;;;;;;;5081762;28;20021;-65
2021/09/08 09:05:28;;;;;;;24.85;16.42;;;;;;;;;;5086710;28;20024;-66
2021/09/08 09:07:54;;;;;;;25.52;16.55;;;;;;;;;;5085399;28;20024;-65
2021/09/08 09:10:20;;;;;;;26.73;16.23;;;;;;;;;;5086926;28;20028;-71
2021/09/08 09:12:46;;;;;;;30.00;17.02;;;;;;;;;;5084426;28;20032;-67
2021/09/08 09:15:14;;;;;;;27.33;17.58;;;;;;;;;;5081938;28;20108;-65
2021/09/08 09:17:41;;;;;;;28.55;17.48;;;;;;;;;;5069022;28;20037;-64
2021/09/08 09:20:11;;;;;;;26.17;17.17;;;;;;;;;;5085595;28;20055;-65
2021/09/08 09:22:37;;;;;;;28.40;17.42;;;;;;;;;;5067007;28;20463;-71
2021/09/08 09:25:04;;;;;;;29.23;17.77;;;;;;;;;;5083034;28;20016;-71
2021/09/08 09:27:35;;;;;;;29.63;16.25;;;;;;;;;;5085397;28;20093;-64
2021/09/08 09:30:06;;;;;;;23.88;15.45;;;;;;;;;;5087525;28;20028;-65
2021/09/08 09:32:51;;;;;;;29.83;16.33;;;;;;;;;;5086649;28;20028;-64
2021/09/08 09:35:19;;;;;;;33.47;18.20;;;;;;;;;;5087533;28;20440;-68
2021/09/08 09:37:51;;;;;;;28.50;15.52;;;;;;;;;;5087508;28;20029;-71
2021/09/08 09:40:19;;;;;;;23.48;14.35;;;;;;;;;;5087132;28;20045;-64
2021/09/08 09:42:46;;;;;;;30.70;17.45;;;;;;;;;;5087410;28;20028;-68
2021/09/08 09:45:12;;;;;;;25.15;15.52;;;;;;;;;;5086975;28;20574;-64
2021/09/08 09:47:40;;;;;;;23.23;14.57;;;;;;;;;;5075760;28;20053;-69
2021/09/08 09:50:07;;;;;;;21.45;15.50;;;;;;;;;;5062796;28;20082;-66
2021/09/08 09:52:34;;;;;;;24.42;14.88;;;;;;;;;;5064507;28;20040;-68
2021/09/08 09:55:01;;;;;;;25.33;15.18;;;;;;;;;;5081897;28;20028;-65
2021/09/08 09:57:27;;;;;;;25.38;16.25;;;;;;;;;;5087540;28;20100;-65
2021/09/08 09:59:54;;;;;;;25.17;14.95;;;;;;;;;;5087364;28;20020;-65
2021/09/08 10:02:20;;;;;;;21.58;15.27;;;;;;;;;;5085147;28;20020;-69
2021/09/08 10:04:48;;;;;;;20.55;13.98;;;;;;;;;;5085872;28;20044;-64
2021/09/08 10:07:17;;;;;;;21.65;15.02;;;;;;;;;;5087529;28;20551;-64
2021/09/08 10:09:43;;;;;;;24.20;14.82;;;;;;;;;;5087172;28;20017;-64
2021/09/08 10:12:10;;;;;;;22.63;13.95;;;;;;;;;;5087152;28;20028;-67
2021/09/08 10:14:36;;;;;;;24.70;14.75;;;;;;;;;;5087148;28;20038;-66
2021/09/08 10:17:03;;;;;;;23.05;13.82;;;;;;;;;;5087464;28;20051;-67
2021/09/08 10:19:30;;;;;;;22.05;15.10;;;;;;;;;;5086920;28;20031;-64
2021/09/08 10:22:07;;;;;;;29.00;15.60;;;;;;;;;;5087272;28;20088;-68
2021/09/08 10:24:33;;;;;;;19.75;12.23;;;;;;;;;;5067613;28;20020;-67
2021/09/08 10:27:00;;;;;;;22.02;13.30;;;;;;;;;;5082670;28;20029;-69
2021/09/08 10:29:28;;;;;;;21.33;13.30;;;;;;;;;;5085465;28;20049;-73
2021/09/08 10:31:55;;;;;;;16.73;11.93;;;;;;;;;;5086276;28;20403;-65
2021/09/08 10:34:21;;;;;;;17.77;12.00;;;;;;;;;;5086599;28;20399;-64
2021/09/08 10:36:48;;;;;;;22.15;12.25;;;;;;;;;;5087536;28;20055;-64
2021/09/08 10:39:16;;;;;;;18.17;10.95;;;;;;;;;;5087301;28;20021;-64
2021/09/08 10:41:47;;;;;;;18.23;12.38;;;;;;;;;;5087333;28;20021;-64
2021/09/08 10:44:13;;;;;;;15.65;10.55;;;;;;;;;;5087445;28;20051;-67
2021/09/08 10:47:02;;;;;;;18.92;11.93;;;;;;;;;;5069739;28;20036;-65
2021/09/08 10:49:37;;;;;;;13.35;9.82;;;;;;;;;;5086319;28;20361;-68
2021/09/08 10:52:03;;;;;;;;;;;;;;;;;;5086113;28;20029;-66
2021/09/08 10:54:29;;;;;;;14.63;10.38;;;;;;;;;;5068366;28;19952;-66
2021/09/08 10:56:55;;;;;;;15.65;10.15;;;;;;;;;;5085773;28;20092;-65
2021/09/08 10:59:21;;;;;;;13.75;9.80;;;;;;;;;;5085329;28;20060;-65
2021/09/08 11:01:52;;;;;;;15.45;9.50;;;;;;;;;;5086179;28;20021;-70
2021/09/08 11:04:18;;;;;;;14.35;10.00;;;;;;;;;;5086653;28;20020;-66
2021/09/08 11:06:46;;;;;;;13.63;8.90;;;;;;;;;;5086596;28;20074;-64
2021/09/08 11:09:13;;;;;;;14.77;8.75;;;;;;;;;;5084327;28;20025;-67
2021/09/08 11:11:53;;;;;;;12.35;8.35;;;;;;;;;;5085420;28;20035;-66
2021/09/08 11:14:19;;;;;;;11.30;8.57;;;;;;;;;;5084439;28;20028;-74
2021/09/08 11:16:46;;;;;;;14.70;8.05;;;;;;;;;;5084389;28;20032;-65
2021/09/08 11:19:13;;;;;;;11.25;9.52;;;;;;;;;;5068527;28;20017;-65
2021/09/08 11:21:39;;;;;;;12.35;8.40;;;;;;;;;;5063675;28;20033;-71
2021/09/08 11:24:10;;;;;;;11.65;8.35;;;;;;;;;;5077856;28;20050;-69
2021/09/08 11:26:37;;;;;;;12.88;8.32;;;;;;;;;;5082381;28;20032;-66
2021/09/08 11:29:10;;;;;;;13.02;8.30;;;;;;;;;;5083783;28;20033;-68
2021/09/08 11:31:38;;;;;;;12.18;8.98;;;;;;;;;;5085030;28;20482;-67
2021/09/08 11:34:05;;;;;;;13.70;8.43;;;;;;;;;;5066839;28;20413;-75
2021/09/08 11:36:31;;;;;;;13.23;8.65;;;;;;;;;;5086393;28;20036;-65
2021/09/08 11:38:59;;;;;;;12.60;8.35;;;;;;;;;;5080701;28;20051;-68
2021/09/08 11:41:30;;;;;;;10.52;8.02;;;;;;;;;;5084731;28;20035;-67
2021/09/08 11:44:04;;;;;;;14.55;8.32;;;;;;;;;;5084719;28;20432;-71
2021/09/08 11:46:32;;;;;;;15.65;8.80;;;;;;;;;;5079438;28;20029;-70
2021/09/08 11:49:07;;;;;;;12.70;8.13;;;;;;;;;;5086269;28;20028;-66
2021/09/08 11:51:35;;;;;;;13.25;8.32;;;;;;;;;;5085645;28;20028;-65
2021/09/08 11:54:04;;;;;;;13.13;8.52;;;;;;;;;;5083525;28;20028;-66
2021/09/08 11:56:30;;;;;;;11.85;7.90;;;;;;;;;;5084893;28;20032;-66
2021/09/08 11:58:57;;;;;;;13.13;8.55;;;;;;;;;;5083183;28;20020;-70
2021/09/08 12:01:31;;;;;;;11.57;7.88;;;;;;;;;;5082439;28;20017;-66
2021/09/08 12:03:59;;;;;;;10.82;8.82;;;;;;;;;;5085237;28;20024;-65
2021/09/08 12:06:35;;;;;;;12.23;8.77;;;;;;;;;;5084720;28;20363;-69
2021/09/08 12:09:11;;;;;;;14.13;8.77;;;;;;;;;;5064862;28;20032;-74
2021/09/08 12:11:37;;;;;;;14.15;8.77;;;;;;;;;;5080943;28;20457;-75
2021/09/08 12:14:22;;;;;;;12.43;8.55;;;;;;;;;;5064218;28;20031;-74
2021/09/08 12:17:08;;;;;;;15.13;8.93;;;;;;;;;;5080696;28;20030;-71
2021/09/08 12:19:41;;;;;;;15.18;8.93;;;;;;;;;;5066594;28;20059;-68
2021/09/08 12:22:09;;;;;;;14.75;9.35;;;;;;;;;;5080545;28;20479;-72
2021/09/08 12:24:41;;;;;;;14.95;8.98;;;;;;;;;;5080594;28;20697;-71
2021/09/08 12:27:24;;;;;;;13.10;9.18;;;;;;;;;;5079502;28;20032;-68
2021/09/08 12:29:50;;;;;;;11.88;8.35;;;;;;;;;;5078321;28;20028;-72
2021/09/08 12:32:17;;;;;;;15.27;9.23;;;;;;;;;;5079750;28;20025;-72
2021/09/08 12:34:44;;;;;;;10.80;8.50;;;;;;;;;;5079883;28;20029;-75
2021/09/08 12:37:10;;;;;;;12.13;8.63;;;;;;;;;;5079439;28;20032;-70
2021/09/08 12:39:46;;;;;;;13.90;7.80;;;;;;;;;;5077678;28;20033;-72
2021/09/08 12:42:23;;;;;;;11.20;7.47;;;;;;;;;;5058650;28;20029;-71
2021/09/08 12:44:50;;;;;;;10.05;8.40;;;;;;;;;;5064209;28;20081;-66
2021/09/08 12:47:22;;;;;;;13.70;9.57;;;;;;;;;;5069350;28;20036;-67
2021/09/08 12:49:50;;;;;;;16.23;9.02;;;;;;;;;;5069356;28;20436;-66
2021/09/08 12:52:18;;;;;;;12.20;7.68;;;;;;;;;;5068456;28;20071;-68
2021/09/08 12:54:44;;;;;;;13.65;8.32;;;;;;;;;;5050156;28;20039;-66
2021/09/08 12:57:11;;;;;;;12.23;8.95;;;;;;;;;;5059544;28;20025;-70
2021/09/08 12:59:38;;;;;;;15.23;8.63;;;;;;;;;;5041286;28;20020;-72
2021/09/08 13:02:06;;;;;;;14.60;8.55;;;;;;;;;;5058434;28;20025;-74
2021/09/08 13:04:32;;;;;;;11.65;8.45;;;;;;;;;;5065549;28;20100;-66
2021/09/08 13:06:59;;;;;;;12.52;9.13;;;;;;;;;;5066458;28;20017;-68
2021/09/08 13:09:26;;;;;;;11.30;8.88;;;;;;;;;;5061213;28;20029;-72
2021/09/08 13:11:52;;;;;;;16.67;8.63;;;;;;;;;;5075400;28;20032;-73
2021/09/08 13:14:19;;;;;;;13.80;8.30;;;;;;;;;;5075990;28;20028;-71
2021/09/08 13:16:45;;;;;;;11.68;8.98;;;;;;;;;;5084969;28;20024;-67
2021/09/08 13:19:12;;;;;;;13.05;8.90;;;;;;;;;;5086013;28;20387;-68
2021/09/08 13:21:40;;;;;;;12.52;9.18;;;;;;;;;;5082921;28;20039;-69
2021/09/08 13:24:06;;;;;;;14.10;9.07;;;;;;;;;;5065016;28;20152;-73
2021/09/08 13:26:32;;;;;;;12.93;9.70;;;;;;;;;;5079878;28;20111;-70
2021/09/08 13:28:58;;;;;;;15.10;11.32;;;;;;;;;;5064181;28;20690;-72
2021/09/08 13:31:25;;;;;;;12.25;9.93;;;;;;;;;;5072612;28;20065;-66
2021/09/08 13:33:51;;;;;;;14.40;9.40;;;;;;;;;;5082652;28;20066;-70
2021/09/08 13:36:17;;;;;;;13.05;9.38;;;;;;;;;;5081288;28;20037;-70
2021/09/08 13:38:44;;;;;;;12.25;9.13;;;;;;;;;;5079655;28;20025;-72
2021/09/08 13:41:11;;;;;;;11.73;9.48;;;;;;;;;;5079023;28;20032;-67
2021/09/08 13:43:38;;;;;;;15.52;9.95;;;;;;;;;;5081068;28;20021;-70
2021/09/08 13:46:05;;;;;;;10.27;8.73;;;;;;;;;;5081064;28;20020;-72
2021/09/08 13:48:31;;;;;;;13.75;8.85;;;;;;;;;;5077798;28;20047;-75
2021/09/08 13:50:58;;;;;;;14.05;9.50;;;;;;;;;;5079894;28;20020;-68
2021/09/08 13:53:24;;;;;;;12.88;8.43;;;;;;;;;;5080722;28;20506;-67
2021/09/08 13:55:50;;;;;;;12.75;8.80;;;;;;;;;;5085894;28;20027;-68
2021/09/08 13:58:16;;;;;;;15.43;9.77;;;;;;;;;;5085899;28;20025;-67
2021/09/08 14:00:42;;;;;;;13.30;9.75;;;;;;;;;;5086072;28;20031;-70
2021/09/08 14:03:08;;;;;;;13.85;8.80;;;;;;;;;;5069516;28;20016;-67
2021/09/08 14:05:34;;;;;;;14.80;7.75;;;;;;;;;;5087373;28;20028;-69
2021/09/08 14:08:01;;;;;;;12.63;8.07;;;;;;;;;;5080135;28;20024;-78
2021/09/08 14:10:29;;;;;;;10.57;8.18;;;;;;;;;;5075257;28;20420;-78
2021/09/08 14:12:55;;;;;;;11.43;7.03;;;;;;;;;;5075435;28;20029;-77
2021/09/08 14:15:21;;;;;;;13.70;9.20;;;;;;;;;;5074927;28;20104;-70
2021/09/08 14:17:47;;;;;;;15.90;9.13;;;;;;;;;;5056996;28;20032;-77
2021/09/08 14:20:14;;;;;;;12.73;8.57;;;;;;;;;;5075466;28;20051;-78